createdAt,value
2022-10-31T00:01:39.367Z,4.88
2022-10-31T00:04:06.732Z,5.00
2022-10-31T00:06:33.502Z,4.80
2022-10-31T00:09:02.637Z,5.25
2022-10-31T00:11:29.618Z,4.82
2022-10-31T00:13:57.695Z,5.00
2022-10-31T00:16:25.882Z,5.80
2022-10-31T00:18:53.708Z,4.97
2022-10-31T00:21:21.443Z,7.97
2022-10-31T00:23:48.304Z,4.88
2022-10-31T00:26:15.401Z,4.97
2022-10-31T00:28:41.925Z,4.78
2022-10-31T00:31:11.744Z,4.70
2022-10-31T00:33:39.472Z,5.00
2022-10-31T00:36:08.065Z,4.90
2022-10-31T00:38:34.714Z,5.20
2022-10-31T00:41:01.290Z,4.70
2022-10-31T00:43:27.983Z,3.70
2022-10-31T00:45:54.902Z,4.78
2022-10-31T00:48:25.944Z,5.28
2022-10-31T00:50:53.224Z,4.55
2022-10-31T00:53:19.796Z,4.28
2022-10-31T00:55:47.555Z,4.78
2022-10-31T01:00:41.785Z,3.97
2022-10-31T01:03:09.194Z,5.25
2022-10-31T01:05:40.839Z,4.55
2022-10-31T01:08:08.600Z,4.18
2022-10-31T01:10:35.151Z,4.50
2022-10-31T01:13:02.047Z,3.92
2022-10-31T01:15:29.110Z,5.57
2022-10-31T01:17:56.012Z,5.18
2022-10-31T01:20:22.801Z,5.25
2022-10-31T01:22:50.761Z,4.25
2022-10-31T01:25:17.321Z,4.60
2022-10-31T01:27:43.941Z,4.75
2022-10-31T01:30:12.135Z,5.35
2022-10-31T01:32:38.813Z,4.32
2022-10-31T01:35:05.802Z,4.63
2022-10-31T01:37:32.419Z,4.63
2022-10-31T01:40:00.531Z,4.32
2022-10-31T01:42:27.268Z,4.70
2022-10-31T01:45:00.180Z,6.00
2022-10-31T01:47:44.051Z,5.28
2022-10-31T01:50:24.908Z,4.65
2022-10-31T01:52:52.658Z,5.53
2022-10-31T01:55:27.764Z,5.13
2022-10-31T01:58:00.627Z,5.53
2022-10-31T02:00:27.504Z,5.47
2022-10-31T02:02:54.086Z,5.25
2022-10-31T02:05:23.981Z,5.20
2022-10-31T02:07:58.350Z,5.20
2022-10-31T02:10:32.840Z,5.45
2022-10-31T02:13:03.244Z,6.32
2022-10-31T02:15:31.386Z,5.35
2022-10-31T02:17:58.270Z,5.15
2022-10-31T02:20:33.056Z,4.90
2022-10-31T02:23:28.992Z,5.03
2022-10-31T02:26:37.202Z,4.88
2022-10-31T02:29:25.962Z,5.32
2022-10-31T02:32:01.441Z,4.95
2022-10-31T02:34:36.405Z,5.07
2022-10-31T02:37:12.624Z,5.75
2022-10-31T02:39:50.457Z,5.20
2022-10-31T02:42:30.036Z,5.07
2022-10-31T02:45:03.932Z,4.93
2022-10-31T02:47:37.639Z,5.07
2022-10-31T02:50:09.868Z,5.30
2022-10-31T02:52:39.679Z,4.55
2022-10-31T02:55:33.534Z,5.20
2022-10-31T02:58:09.336Z,6.43
2022-10-31T03:00:43.974Z,5.22
2022-10-31T03:03:18.692Z,4.65
2022-10-31T03:05:56.005Z,4.45
2022-10-31T03:08:30.911Z,5.38
2022-10-31T03:10:59.980Z,5.63
2022-10-31T03:13:36.856Z,5.20
2022-10-31T03:16:09.734Z,5.55
2022-10-31T03:18:40.466Z,5.38
2022-10-31T03:21:13.767Z,4.97
2022-10-31T03:23:42.634Z,5.18
2022-10-31T03:26:12.104Z,5.03
2022-10-31T03:28:45.176Z,5.13
2022-10-31T03:31:17.465Z,5.93
2022-10-31T03:33:45.898Z,5.35
2022-10-31T03:36:16.593Z,6.47
2022-10-31T03:38:45.957Z,6.57
2022-10-31T03:41:19.253Z,5.10
2022-10-31T03:43:56.130Z,4.60
2022-10-31T03:46:24.516Z,4.70
2022-10-31T03:48:51.604Z,4.43
2022-10-31T03:51:23.817Z,3.90
2022-10-31T03:53:57.059Z,5.38
2022-10-31T03:56:30.721Z,5.00
2022-10-31T03:59:05.187Z,5.40
2022-10-31T04:01:36.139Z,4.55
2022-10-31T04:04:04.040Z,5.03
2022-10-31T04:06:32.232Z,5.60
2022-10-31T04:09:05.500Z,5.35
2022-10-31T04:14:34.285Z,4.97
2022-10-31T04:17:04.434Z,4.85
2022-10-31T04:19:36.466Z,4.50
2022-10-31T04:22:03.099Z,4.90
2022-10-31T04:24:30.193Z,4.82
2022-10-31T04:26:57.694Z,4.85
2022-10-31T04:29:24.678Z,4.55
2022-10-31T04:31:52.750Z,4.72
2022-10-31T04:34:19.356Z,4.35
2022-10-31T04:36:45.928Z,4.25
2022-10-31T04:39:15.151Z,4.78
2022-10-31T04:41:48.847Z,5.07
2022-10-31T04:44:15.753Z,4.95
2022-10-31T04:46:42.349Z,4.25
2022-10-31T04:49:11.335Z,4.30
2022-10-31T04:51:38.019Z,4.55
2022-10-31T04:54:05.418Z,5.07
2022-10-31T04:57:10.597Z,4.93
2022-10-31T04:59:38.037Z,5.05
2022-10-31T05:02:04.630Z,6.00
2022-10-31T05:04:47.545Z,4.72
2022-10-31T05:07:14.273Z,4.65
2022-10-31T05:09:40.823Z,4.80
2022-10-31T05:12:07.510Z,4.45
2022-10-31T05:14:52.463Z,5.97
2022-10-31T05:17:37.729Z,4.55
2022-10-31T05:20:32.177Z,4.40
2022-10-31T05:23:26.227Z,4.10
2022-10-31T05:25:53.903Z,4.78
2022-10-31T05:28:21.062Z,4.40
2022-10-31T05:30:47.850Z,4.95
2022-10-31T05:33:16.427Z,5.10
2022-10-31T05:36:03.409Z,5.35
2022-10-31T05:38:48.372Z,5.00
2022-10-31T05:41:33.690Z,4.85
2022-10-31T05:44:13.429Z,4.03
2022-10-31T05:47:09.621Z,4.82
2022-10-31T05:49:58.905Z,5.03
2022-10-31T05:52:33.053Z,5.00
2022-10-31T05:55:12.077Z,4.13
2022-10-31T05:57:45.768Z,4.97
2022-10-31T06:00:13.560Z,4.30
2022-10-31T06:02:47.680Z,4.45
2022-10-31T06:05:28.642Z,4.85
2022-10-31T06:07:57.071Z,4.32
2022-10-31T06:10:24.844Z,4.85
2022-10-31T06:12:54.563Z,5.20
2022-10-31T06:15:34.016Z,4.70
2022-10-31T06:18:03.058Z,6.28
2022-10-31T06:20:34.101Z,5.18
2022-10-31T06:23:05.644Z,4.32
2022-10-31T06:25:33.969Z,4.25
2022-10-31T06:28:00.840Z,3.90
2022-10-31T06:30:44.628Z,4.85
2022-10-31T06:33:11.460Z,5.45
2022-10-31T06:35:46.380Z,5.35
2022-10-31T06:38:14.406Z,4.60
2022-10-31T06:40:42.686Z,4.40
2022-10-31T06:43:21.525Z,5.00
2022-10-31T06:45:49.450Z,7.07
2022-10-31T06:48:24.063Z,4.28
2022-10-31T06:51:14.898Z,5.32
2022-10-31T06:53:44.168Z,4.80
2022-10-31T06:56:12.520Z,4.65
2022-10-31T06:58:45.187Z,4.50
2022-10-31T07:01:13.505Z,5.65
2022-10-31T07:03:40.186Z,4.68
2022-10-31T07:06:08.152Z,5.18
2022-10-31T07:08:34.848Z,5.03
2022-10-31T07:11:03.725Z,5.80
2022-10-31T07:13:30.806Z,5.82
2022-10-31T07:16:07.918Z,5.50
2022-10-31T07:18:36.510Z,6.00
2022-10-31T07:21:03.306Z,5.30
2022-10-31T07:23:29.914Z,5.55
2022-10-31T07:26:17.882Z,5.53
2022-10-31T07:28:47.300Z,4.63
2022-10-31T07:31:14.993Z,5.43
2022-10-31T07:33:41.969Z,4.93
2022-10-31T07:36:37.271Z,5.30
2022-10-31T07:39:04.597Z,5.50
2022-10-31T07:41:36.838Z,5.22
2022-10-31T07:44:03.800Z,5.45
2022-10-31T07:46:50.585Z,4.78
2022-10-31T07:49:36.273Z,5.20
2022-10-31T07:52:21.720Z,6.57
2022-10-31T07:55:07.865Z,5.15
2022-10-31T07:57:38.009Z,5.20
2022-10-31T08:00:05.768Z,5.57
2022-10-31T08:02:41.903Z,4.43
2022-10-31T08:05:35.523Z,5.93
2022-10-31T08:08:20.724Z,6.13
2022-10-31T08:10:48.741Z,5.03
2022-10-31T08:13:16.639Z,4.95
2022-10-31T08:15:46.933Z,4.72
2022-10-31T08:18:15.508Z,4.90
2022-10-31T08:20:44.124Z,4.75
2022-10-31T08:23:12.177Z,4.90
2022-10-31T08:25:39.253Z,5.32
2022-10-31T08:28:07.350Z,5.13
2022-10-31T08:30:37.567Z,5.45
2022-10-31T08:33:27.147Z,4.70
2022-10-31T08:36:12.416Z,5.57
2022-10-31T08:39:15.480Z,5.20
2022-10-31T08:41:42.393Z,5.28
2022-10-31T08:44:12.235Z,5.03
2022-10-31T08:46:40.334Z,5.10
2022-10-31T08:49:07.158Z,5.00
2022-10-31T08:51:36.283Z,5.47
2022-10-31T08:54:02.830Z,5.43
2022-10-31T08:56:47.712Z,5.03
2022-10-31T08:59:29.156Z,5.10
2022-10-31T09:02:17.427Z,4.65
2022-10-31T09:04:44.164Z,5.05
2022-10-31T09:07:26.344Z,5.18
2022-10-31T09:09:54.216Z,5.65
2022-10-31T09:12:20.804Z,4.95
2022-10-31T09:15:08.193Z,4.60
2022-10-31T09:17:49.479Z,5.03
2022-10-31T09:20:27.635Z,4.47
2022-10-31T09:22:57.989Z,4.70
2022-10-31T09:25:25.069Z,5.03
2022-10-31T09:28:07.324Z,4.95
2022-10-31T09:30:35.892Z,4.75
2022-10-31T09:33:06.350Z,5.10
2022-10-31T09:35:48.134Z,4.90
2022-10-31T09:38:17.131Z,5.25
2022-10-31T09:40:46.562Z,4.60
2022-10-31T09:43:26.186Z,4.70
2022-10-31T09:46:01.969Z,4.50
2022-10-31T09:48:59.289Z,6.50
2022-10-31T09:51:43.522Z,5.30
2022-10-31T09:54:27.641Z,4.88
2022-10-31T09:56:56.755Z,4.35
2022-10-31T09:59:29.121Z,4.15
2022-10-31T10:01:58.473Z,4.72
2022-10-31T10:04:35.796Z,4.88
2022-10-31T10:07:31.292Z,4.43
2022-10-31T10:10:23.150Z,4.78
2022-10-31T10:13:38.455Z,5.65
2022-10-31T10:16:18.066Z,5.03
2022-10-31T10:18:59.252Z,5.30
2022-10-31T10:21:38.065Z,5.05
2022-10-31T10:24:26.380Z,6.45
2022-10-31T10:27:05.500Z,4.95
2022-10-31T10:29:38.464Z,5.25
2022-10-31T10:32:11.611Z,4.93
2022-10-31T10:34:47.127Z,5.85
2022-10-31T10:37:24.996Z,4.75
2022-10-31T10:39:56.478Z,5.07
2022-10-31T10:42:26.201Z,5.38
2022-10-31T10:44:52.984Z,4.88
2022-10-31T10:47:20.153Z,4.72
2022-10-31T10:49:51.885Z,5.32
2022-10-31T10:52:50.614Z,5.32
2022-10-31T10:55:29.075Z,4.82
2022-10-31T10:57:59.595Z,4.47
2022-10-31T11:00:30.275Z,4.53
2022-10-31T11:02:57.520Z,5.28
2022-10-31T11:05:40.109Z,5.18
2022-10-31T11:08:08.552Z,4.53
2022-10-31T11:10:35.885Z,5.22
2022-10-31T11:13:15.504Z,4.30
2022-10-31T11:15:52.595Z,4.80
2022-10-31T11:18:22.993Z,4.47
2022-10-31T11:20:53.371Z,4.65
2022-10-31T11:23:23.591Z,4.55
2022-10-31T11:25:52.743Z,4.65
2022-10-31T11:28:19.500Z,5.07
2022-10-31T11:30:48.795Z,4.68
2022-10-31T11:33:22.209Z,4.45
2022-10-31T11:35:52.107Z,4.20
2022-10-31T11:38:25.345Z,4.25
2022-10-31T11:40:57.377Z,4.00
2022-10-31T11:43:24.606Z,4.82
2022-10-31T11:45:51.577Z,5.50
2022-10-31T11:48:22.364Z,4.25
2022-10-31T11:50:51.363Z,4.65
2022-10-31T11:53:20.116Z,4.13
2022-10-31T11:56:00.704Z,4.68
2022-10-31T11:58:27.785Z,4.82
2022-10-31T12:00:56.199Z,4.38
2022-10-31T12:03:34.505Z,4.90
2022-10-31T12:06:04.710Z,4.13
2022-10-31T12:08:33.200Z,5.05
2022-10-31T12:11:10.565Z,4.28
2022-10-31T12:13:44.604Z,4.13
2022-10-31T12:16:32.193Z,4.55
2022-10-31T12:19:04.485Z,4.43
2022-10-31T12:21:49.504Z,4.38
2022-10-31T12:24:30.275Z,4.22
2022-10-31T12:27:08.440Z,4.03
2022-10-31T12:29:53.807Z,3.90
2022-10-31T12:32:36.151Z,4.22
2022-10-31T12:35:24.745Z,3.95
2022-10-31T12:38:05.626Z,4.35
2022-10-31T12:40:55.859Z,4.93
2022-10-31T12:43:36.395Z,4.22
2022-10-31T12:46:04.766Z,4.10
2022-10-31T12:48:58.503Z,3.78
2022-10-31T12:51:36.230Z,3.78
2022-10-31T12:54:26.686Z,3.80
2022-10-31T12:57:01.228Z,4.15
2022-10-31T12:59:34.897Z,4.00
2022-10-31T13:02:13.699Z,4.00
2022-10-31T13:04:45.260Z,3.90
2022-10-31T13:09:48.941Z,4.07
2022-10-31T13:12:20.326Z,3.95
2022-10-31T13:14:52.067Z,4.15
2022-10-31T13:17:25.922Z,3.58
2022-10-31T13:20:09.712Z,3.50
2022-10-31T13:22:38.045Z,4.40
2022-10-31T13:25:13.271Z,4.30
2022-10-31T13:27:46.092Z,3.55
2022-10-31T13:30:17.711Z,4.35
2022-10-31T13:32:49.968Z,3.53
2022-10-31T13:35:22.875Z,3.72
2022-10-31T13:37:58.635Z,3.65
2022-10-31T13:40:35.657Z,3.83
2022-10-31T13:43:10.712Z,4.00
2022-10-31T13:45:49.836Z,3.78
2022-10-31T13:48:35.212Z,3.63
2022-10-31T13:51:03.915Z,3.72
2022-10-31T13:53:38.588Z,3.50
2022-10-31T13:56:15.544Z,3.70
2022-10-31T13:58:44.717Z,4.18
2022-10-31T14:01:19.969Z,3.45
2022-10-31T14:04:07.627Z,3.42
2022-10-31T14:06:41.230Z,3.25
2022-10-31T14:09:20.397Z,3.60
2022-10-31T14:11:48.572Z,3.28
2022-10-31T14:14:16.268Z,3.10
2022-10-31T14:16:55.800Z,3.00
2022-10-31T14:19:23.473Z,3.00
2022-10-31T14:21:51.341Z,3.05
2022-10-31T14:24:33.196Z,3.30
2022-10-31T14:27:01.758Z,3.30
2022-10-31T14:29:29.433Z,3.63
2022-10-31T14:32:20.448Z,2.80
2022-10-31T14:34:54.293Z,2.88
2022-10-31T14:37:37.061Z,4.15
2022-10-31T14:40:15.502Z,3.60
2022-10-31T14:42:57.942Z,3.47
2022-10-31T14:45:39.990Z,3.08
2022-10-31T14:48:22.975Z,8.38
2022-10-31T14:50:50.961Z,3.22
2022-10-31T14:53:22.985Z,14.13
2022-10-31T14:55:52.672Z,7.65
2022-10-31T14:58:22.223Z,2.92
2022-10-31T15:00:50.824Z,4.10
2022-10-31T15:03:27.304Z,3.67
2022-10-31T15:05:56.511Z,8.63
2022-10-31T15:08:35.677Z,8.55
2022-10-31T15:11:11.438Z,4.32
2022-10-31T15:13:43.405Z,4.00
2022-10-31T15:16:12.509Z,4.22
2022-10-31T15:18:48.526Z,3.13
2022-10-31T15:21:17.003Z,3.22
2022-10-31T15:23:43.946Z,3.30
2022-10-31T15:26:17.677Z,3.65
2022-10-31T15:28:44.389Z,3.42
2022-10-31T15:31:16.410Z,3.20
2022-10-31T15:33:49.519Z,3.05
2022-10-31T15:36:23.933Z,3.90
2022-10-31T15:38:56.714Z,3.30
2022-10-31T15:41:29.197Z,4.32
2022-10-31T15:43:59.650Z,3.50
2022-10-31T15:46:26.501Z,3.30
2022-10-31T15:48:54.681Z,6.00
2022-10-31T15:51:27.429Z,3.60
2022-10-31T15:53:55.423Z,3.60
2022-10-31T15:56:24.078Z,3.55
2022-10-31T15:58:53.114Z,3.53
2022-10-31T16:01:23.601Z,4.00
2022-10-31T16:04:03.883Z,3.47
2022-10-31T16:06:31.568Z,4.00
2022-10-31T16:08:58.126Z,3.95
2022-10-31T16:11:28.974Z,4.53
2022-10-31T16:14:01.669Z,6.47
2022-10-31T16:16:35.142Z,8.32
2022-10-31T16:19:06.383Z,8.65
2022-10-31T16:21:36.320Z,7.03
2022-10-31T16:24:06.590Z,6.05
2022-10-31T16:26:33.902Z,4.80
2022-10-31T16:29:05.594Z,4.50
2022-10-31T16:31:39.063Z,4.20
2022-10-31T16:34:16.131Z,3.75
2022-10-31T16:36:42.784Z,4.18
2022-10-31T16:39:09.751Z,4.28
2022-10-31T16:41:41.343Z,4.05
2022-10-31T16:46:41.673Z,3.38
2022-10-31T16:49:11.502Z,3.72
2022-10-31T16:51:38.325Z,3.85
2022-10-31T16:54:05.222Z,3.47
2022-10-31T16:56:34.157Z,4.30
2022-10-31T16:59:03.571Z,3.97
2022-10-31T17:01:31.240Z,4.20
2022-10-31T17:03:57.891Z,6.22
2022-10-31T17:06:25.794Z,6.20
2022-10-31T17:08:52.323Z,5.72
2022-10-31T17:11:23.014Z,5.15
2022-10-31T17:13:49.765Z,30.80
2022-10-31T17:16:16.444Z,23.98
2022-10-31T17:18:43.213Z,35.85
2022-10-31T17:21:17.836Z,14.68
2022-10-31T17:23:45.811Z,10.55
2022-10-31T17:26:12.318Z,3.72
2022-10-31T17:28:38.939Z,4.25
2022-10-31T17:31:05.851Z,4.47
2022-10-31T17:33:32.494Z,4.78
2022-10-31T17:35:59.161Z,5.05
2022-10-31T17:38:25.775Z,7.90
2022-10-31T17:40:53.639Z,5.70
2022-10-31T17:43:20.259Z,5.88
2022-10-31T17:45:47.017Z,6.95
2022-10-31T17:48:13.674Z,36.33
2022-10-31T17:50:40.227Z,51.72
2022-10-31T17:53:06.836Z,11.25
2022-10-31T17:55:36.215Z,12.73
2022-10-31T17:58:05.725Z,11.95
2022-10-31T18:00:33.074Z,10.23
2022-10-31T18:03:01.411Z,9.30
2022-10-31T18:05:28.214Z,8.32
2022-10-31T18:07:56.493Z,10.52
2022-10-31T18:10:24.781Z,11.48
2022-10-31T18:12:51.498Z,5.30
2022-10-31T18:15:19.514Z,4.05
2022-10-31T18:17:46.465Z,5.82
2022-10-31T18:20:13.127Z,5.25
2022-10-31T18:22:39.651Z,5.57
2022-10-31T18:25:06.864Z,5.80
2022-10-31T18:27:33.695Z,6.30
2022-10-31T18:30:00.324Z,8.98
2022-10-31T18:32:28.312Z,10.18
2022-10-31T18:34:55.055Z,8.45
2022-10-31T18:37:21.646Z,7.63
2022-10-31T18:39:48.291Z,8.63
2022-10-31T18:42:14.969Z,7.13
2022-10-31T18:44:41.520Z,9.40
2022-10-31T18:47:08.071Z,15.63
2022-10-31T18:49:35.972Z,26.48
2022-10-31T18:52:02.654Z,22.63
2022-10-31T18:54:29.340Z,38.55
2022-10-31T18:56:55.928Z,20.27
2022-10-31T18:59:22.633Z,10.43
2022-10-31T19:01:49.374Z,7.95
2022-10-31T19:04:16.011Z,9.27
2022-10-31T19:06:44.022Z,6.82
2022-10-31T19:09:10.959Z,7.90
2022-10-31T19:11:38.745Z,7.15
2022-10-31T19:14:06.485Z,6.03
2022-10-31T19:16:33.519Z,5.93
2022-10-31T19:19:00.485Z,6.22
2022-10-31T19:21:27.783Z,6.30
2022-10-31T19:23:55.711Z,6.82
2022-10-31T19:26:22.529Z,6.40
2022-10-31T19:28:49.080Z,6.45
2022-10-31T19:31:15.668Z,7.35
2022-10-31T19:33:42.421Z,6.68
2022-10-31T19:36:11.311Z,6.97
2022-10-31T19:38:41.061Z,6.20
2022-10-31T19:41:10.816Z,5.72
2022-10-31T19:43:37.596Z,5.88
2022-10-31T19:46:05.229Z,4.97
2022-10-31T19:48:32.298Z,6.05
2022-10-31T19:51:03.230Z,6.05
2022-10-31T19:53:30.690Z,6.03
2022-10-31T19:55:57.397Z,5.93
2022-10-31T19:58:25.702Z,6.07
2022-10-31T20:00:52.783Z,6.70
2022-10-31T20:03:22.509Z,6.68
2022-10-31T20:05:50.229Z,6.40
2022-10-31T20:08:18.754Z,6.68
2022-10-31T20:10:54.297Z,10.30
2022-10-31T20:13:21.048Z,8.27
2022-10-31T20:15:48.911Z,6.45
2022-10-31T20:18:15.682Z,6.03
2022-10-31T20:20:42.337Z,7.38
2022-10-31T20:23:08.936Z,6.90
2022-10-31T20:25:36.158Z,11.50
2022-10-31T20:28:02.807Z,7.30
2022-10-31T20:30:29.329Z,7.30
2022-10-31T20:32:57.445Z,11.90
2022-10-31T20:35:24.013Z,9.00
2022-10-31T20:37:50.634Z,11.65
2022-10-31T20:40:17.619Z,8.73
2022-10-31T20:42:44.276Z,10.27
2022-10-31T20:45:11.182Z,10.65
2022-10-31T20:47:37.781Z,8.38
2022-10-31T20:50:06.881Z,8.20
2022-10-31T20:52:33.511Z,7.85
2022-10-31T20:55:00.172Z,9.77
2022-10-31T20:57:27.028Z,8.30
2022-10-31T20:59:53.558Z,8.27
2022-10-31T21:02:20.385Z,9.18
2022-10-31T21:04:46.989Z,7.80
2022-10-31T21:07:15.230Z,6.80
2022-10-31T21:09:41.908Z,6.70
2022-10-31T21:12:08.501Z,7.70
2022-10-31T21:14:35.134Z,7.43
2022-10-31T21:17:02.025Z,8.90
2022-10-31T21:19:28.904Z,7.65
2022-10-31T21:21:55.648Z,8.40
2022-10-31T21:24:23.878Z,8.85
2022-10-31T21:26:51.848Z,7.95
2022-10-31T21:29:20.025Z,8.05
2022-10-31T21:31:47.650Z,8.80
2022-10-31T21:34:14.549Z,6.05
2022-10-31T21:36:42.712Z,5.30
2022-10-31T21:39:10.144Z,7.05
2022-10-31T21:41:38.250Z,6.88
2022-10-31T21:44:05.282Z,23.20
2022-10-31T21:46:33.566Z,10.48
2022-10-31T21:49:02.901Z,8.27
2022-10-31T21:51:31.519Z,7.05
2022-10-31T21:53:58.587Z,6.60
2022-10-31T21:56:25.703Z,6.13
2022-10-31T21:58:53.869Z,7.07
2022-10-31T22:01:22.064Z,7.35
2022-10-31T22:03:48.868Z,7.95
2022-10-31T22:06:16.161Z,7.78
2022-10-31T22:08:44.016Z,8.23
2022-10-31T22:11:12.602Z,9.27
2022-10-31T22:13:39.910Z,10.05
2022-10-31T22:16:09.640Z,8.93
2022-10-31T22:18:36.975Z,9.02
2022-10-31T22:21:04.743Z,7.05
2022-10-31T22:23:32.257Z,6.38
2022-10-31T22:26:03.116Z,7.70
2022-10-31T22:28:30.603Z,6.27
2022-10-31T22:30:57.294Z,5.75
2022-10-31T22:33:25.866Z,7.43
2022-10-31T22:35:52.525Z,6.78
2022-10-31T22:38:19.258Z,7.85
2022-10-31T22:40:45.888Z,6.35
2022-10-31T22:43:12.614Z,5.68
2022-10-31T22:45:39.142Z,6.00
2022-10-31T22:48:06.288Z,5.85
2022-10-31T22:50:34.468Z,6.60
2022-10-31T22:53:01.039Z,6.15
2022-10-31T22:55:27.568Z,5.57
2022-10-31T22:57:54.134Z,5.95
2022-10-31T23:00:20.974Z,6.78
2022-10-31T23:02:47.770Z,12.43
2022-10-31T23:05:14.568Z,10.05
2022-10-31T23:07:42.579Z,7.20
2022-10-31T23:10:09.626Z,6.85
2022-10-31T23:12:36.230Z,5.85
2022-10-31T23:15:02.872Z,5.45
2022-10-31T23:17:29.467Z,6.22
2022-10-31T23:19:56.028Z,5.35
2022-10-31T23:22:22.673Z,6.50
2022-10-31T23:24:50.561Z,6.90
2022-10-31T23:27:19.481Z,6.68
2022-10-31T23:29:48.269Z,9.63
2022-10-31T23:32:19.282Z,14.07
2022-10-31T23:34:47.128Z,7.95
2022-10-31T23:37:14.340Z,5.90
2022-10-31T23:39:40.943Z,5.13
2022-10-31T23:42:09.449Z,5.55
2022-10-31T23:44:36.365Z,4.95
2022-10-31T23:47:03.487Z,7.88
2022-10-31T23:49:30.261Z,6.90
2022-10-31T23:51:56.872Z,8.10
2022-10-31T23:54:23.982Z,8.50
2022-10-31T23:56:50.506Z,25.58
2022-10-31T23:59:18.779Z,8.77
